sensor_id;sensor_type;location;lat;lon;timestamp;pressure;altitude;pressure_sealevel;temperature;humidity
73063;BME280;61230;46.328;19.972;2022-08-19T00:00:39;100040.69;;;25.18;51.54
73063;BME280;61230;46.328;19.972;2022-08-19T00:03:07;100036.25;;;25.12;52.11
73063;BME280;61230;46.328;19.972;2022-08-19T00:05:34;100031.38;;;25.09;52.28
73063;BME280;61230;46.328;19.972;2022-08-19T00:08:03;100038.88;;;25.07;52.69
73063;BME280;61230;46.328;19.972;2022-08-19T00:10:30;100028.03;;;25.02;52.80
73063;BME280;61230;46.328;19.972;2022-08-19T00:12:58;100030.16;;;25.00;52.68
73063;BME280;61230;46.328;19.972;2022-08-19T00:15:26;100022.72;;;24.90;53.28
73063;BME280;61230;46.328;19.972;2022-08-19T00:17:53;100021.50;;;24.81;53.75
73063;BME280;61230;46.328;19.972;2022-08-19T00:20:21;100021.81;;;24.85;53.46
73063;BME280;61230;46.328;19.972;2022-08-19T00:22:49;100022.66;;;24.85;53.18
73063;BME280;61230;46.328;19.972;2022-08-19T00:25:17;100015.16;;;24.76;54.07
73063;BME280;61230;46.328;19.972;2022-08-19T00:27:56;100017.44;;;24.67;53.95
73063;BME280;61230;46.328;19.972;2022-08-19T00:30:25;100012.28;;;24.49;55.13
73063;BME280;61230;46.328;19.972;2022-08-19T00:32:53;100002.44;;;24.54;54.90
73063;BME280;61230;46.328;19.972;2022-08-19T00:35:22;100008.12;;;24.58;54.63
73063;BME280;61230;46.328;19.972;2022-08-19T00:37:50;100007.94;;;24.48;55.39
73063;BME280;61230;46.328;19.972;2022-08-19T00:40:18;100009.81;;;24.47;55.45
73063;BME280;61230;46.328;19.972;2022-08-19T00:42:46;100011.47;;;24.48;55.37
73063;BME280;61230;46.328;19.972;2022-08-19T00:45:18;100014.72;;;24.50;55.09
73063;BME280;61230;46.328;19.972;2022-08-19T00:47:47;100018.47;;;24.49;55.55
73063;BME280;61230;46.328;19.972;2022-08-19T00:50:17;100018.94;;;24.46;55.40
73063;BME280;61230;46.328;19.972;2022-08-19T00:52:48;100018.03;;;24.41;55.82
73063;BME280;61230;46.328;19.972;2022-08-19T00:55:21;100017.03;;;24.30;56.59
73063;BME280;61230;46.328;19.972;2022-08-19T00:57:56;100009.44;;;24.27;56.76
73063;BME280;61230;46.328;19.972;2022-08-19T01:00:26;100005.69;;;24.28;56.37
73063;BME280;61230;46.328;19.972;2022-08-19T01:02:54;100003.97;;;24.22;57.22
73063;BME280;61230;46.328;19.972;2022-08-19T01:05:25;100001.28;;;24.22;57.51
73063;BME280;61230;46.328;19.972;2022-08-19T01:07:56;99998.00;;;24.20;57.71
73063;BME280;61230;46.328;19.972;2022-08-19T01:10:30;99998.84;;;24.09;58.30
73063;BME280;61230;46.328;19.972;2022-08-19T01:13:04;99993.25;;;24.11;58.28
73063;BME280;61230;46.328;19.972;2022-08-19T01:15:38;99999.88;;;24.08;58.72
73063;BME280;61230;46.328;19.972;2022-08-19T01:18:10;99995.47;;;24.02;58.97
73063;BME280;61230;46.328;19.972;2022-08-19T01:20:39;99997.81;;;23.98;59.24
73063;BME280;61230;46.328;19.972;2022-08-19T01:23:08;99993.16;;;23.94;59.64
73063;BME280;61230;46.328;19.972;2022-08-19T01:25:49;99985.09;;;23.94;59.74
73063;BME280;61230;46.328;19.972;2022-08-19T01:28:26;99990.84;;;23.86;60.04
73063;BME280;61230;46.328;19.972;2022-08-19T01:31:09;99985.13;;;23.82;60.13
73063;BME280;61230;46.328;19.972;2022-08-19T01:33:56;99985.50;;;23.74;60.32
73063;BME280;61230;46.328;19.972;2022-08-19T01:36:37;99980.84;;;23.70;60.30
73063;BME280;61230;46.328;19.972;2022-08-19T01:39:08;99989.38;;;23.67;60.44
73063;BME280;61230;46.328;19.972;2022-08-19T01:41:36;99988.28;;;23.68;60.36
73063;BME280;61230;46.328;19.972;2022-08-19T01:44:05;99987.38;;;23.62;60.46
73063;BME280;61230;46.328;19.972;2022-08-19T01:46:47;99991.59;;;23.58;60.42
73063;BME280;61230;46.328;19.972;2022-08-19T01:49:17;99992.53;;;23.52;60.73
73063;BME280;61230;46.328;19.972;2022-08-19T01:51:45;99993.34;;;23.53;60.70
73063;BME280;61230;46.328;19.972;2022-08-19T01:54:15;99993.47;;;23.46;60.70
73063;BME280;61230;46.328;19.972;2022-08-19T01:56:59;99994.50;;;23.45;60.63
73063;BME280;61230;46.328;19.972;2022-08-19T01:59:28;99997.34;;;23.38;61.18
73063;BME280;61230;46.328;19.972;2022-08-19T02:01:57;99995.56;;;23.32;61.42
73063;BME280;61230;46.328;19.972;2022-08-19T02:04:25;99988.28;;;23.33;61.10
73063;BME280;61230;46.328;19.972;2022-08-19T02:06:54;99990.03;;;23.27;61.97
73063;BME280;61230;46.328;19.972;2022-08-19T02:09:21;99983.28;;;23.13;63.74
73063;BME280;61230;46.328;19.972;2022-08-19T02:11:49;99988.75;;;22.95;65.48
73063;BME280;61230;46.328;19.972;2022-08-19T02:14:17;99979.16;;;22.87;64.18
73063;BME280;61230;46.328;19.972;2022-08-19T02:16:44;99983.28;;;22.90;63.39
73063;BME280;61230;46.328;19.972;2022-08-19T02:19:12;99978.22;;;22.94;63.20
73063;BME280;61230;46.328;19.972;2022-08-19T02:21:40;99977.91;;;22.90;63.10
73063;BME280;61230;46.328;19.972;2022-08-19T02:24:07;99973.22;;;22.85;63.21
73063;BME280;61230;46.328;19.972;2022-08-19T02:26:35;99980.66;;;22.72;64.12
73063;BME280;61230;46.328;19.972;2022-08-19T02:29:03;99973.53;;;22.66;64.31
73063;BME280;61230;46.328;19.972;2022-08-19T02:31:30;99957.38;;;22.54;64.97
73063;BME280;61230;46.328;19.972;2022-08-19T02:33:58;99934.50;;;22.52;64.82
73063;BME280;61230;46.328;19.972;2022-08-19T02:36:26;99946.19;;;22.57;64.67
73063;BME280;61230;46.328;19.972;2022-08-19T02:38:54;99946.03;;;22.70;64.38
73063;BME280;61230;46.328;19.972;2022-08-19T02:41:28;99952.09;;;22.77;64.04
73063;BME280;61230;46.328;19.972;2022-08-19T02:43:57;99945.44;;;22.80;63.91
73063;BME280;61230;46.328;19.972;2022-08-19T02:46:48;99955.97;;;22.81;63.84
73063;BME280;61230;46.328;19.972;2022-08-19T02:49:18;99944.62;;;22.91;63.39
73063;BME280;61230;46.328;19.972;2022-08-19T02:51:47;99955.81;;;22.88;63.45
73063;BME280;61230;46.328;19.972;2022-08-19T02:54:14;99961.91;;;22.83;63.54
73063;BME280;61230;46.328;19.972;2022-08-19T02:56:43;99964.22;;;22.80;63.69
73063;BME280;61230;46.328;19.972;2022-08-19T02:59:11;99960.22;;;22.71;64.03
73063;BME280;61230;46.328;19.972;2022-08-19T03:01:40;99951.50;;;22.64;64.01
73063;BME280;61230;46.328;19.972;2022-08-19T03:04:12;99964.94;;;22.75;63.67
73063;BME280;61230;46.328;19.972;2022-08-19T03:06:43;99976.13;;;22.72;63.68
73063;BME280;61230;46.328;19.972;2022-08-19T03:09:12;99970.63;;;22.67;63.77
73063;BME280;61230;46.328;19.972;2022-08-19T03:11:40;99989.28;;;22.74;63.34
73063;BME280;61230;46.328;19.972;2022-08-19T03:14:08;99992.09;;;22.67;63.66
73063;BME280;61230;46.328;19.972;2022-08-19T03:16:46;99990.66;;;22.65;63.70
73063;BME280;61230;46.328;19.972;2022-08-19T03:19:17;99990.56;;;22.71;63.29
73063;BME280;61230;46.328;19.972;2022-08-19T03:21:45;99992.31;;;22.66;63.34
73063;BME280;61230;46.328;19.972;2022-08-19T03:24:14;99988.34;;;22.68;63.01
73063;BME280;61230;46.328;19.972;2022-08-19T03:26:48;99978.69;;;22.67;62.93
73063;BME280;61230;46.328;19.972;2022-08-19T03:29:17;99977.03;;;22.66;63.32
73063;BME280;61230;46.328;19.972;2022-08-19T03:31:59;99985.75;;;22.62;63.81
73063;BME280;61230;46.328;19.972;2022-08-19T03:34:33;99986.53;;;22.62;63.97
73063;BME280;61230;46.328;19.972;2022-08-19T03:37:07;99992.47;;;22.53;64.36
73063;BME280;61230;46.328;19.972;2022-08-19T03:39:37;99991.19;;;22.55;64.28
73063;BME280;61230;46.328;19.972;2022-08-19T03:42:05;99994.91;;;22.54;64.31
73063;BME280;61230;46.328;19.972;2022-08-19T03:44:53;99995.16;;;22.53;64.24
73063;BME280;61230;46.328;19.972;2022-08-19T03:47:21;99994.72;;;22.56;64.21
73063;BME280;61230;46.328;19.972;2022-08-19T03:49:48;99999.22;;;22.44;64.64
73063;BME280;61230;46.328;19.972;2022-08-19T03:52:16;99997.84;;;22.53;64.36
73063;BME280;61230;46.328;19.972;2022-08-19T03:54:44;100003.22;;;22.53;64.19
73063;BME280;61230;46.328;19.972;2022-08-19T03:57:12;100001.56;;;22.52;64.33
73063;BME280;61230;46.328;19.972;2022-08-19T03:59:39;100004.81;;;22.54;64.18
73063;BME280;61230;46.328;19.972;2022-08-19T04:02:11;100002.09;;;22.42;64.73
73063;BME280;61230;46.328;19.972;2022-08-19T04:04:41;100000.25;;;22.43;64.72
73063;BME280;61230;46.328;19.972;2022-08-19T04:07:12;100001.44;;;22.47;64.63
73063;BME280;61230;46.328;19.972;2022-08-19T04:09:43;99996.97;;;22.41;64.76
73063;BME280;61230;46.328;19.972;2022-08-19T04:12:11;100000.84;;;22.45;64.39
73063;BME280;61230;46.328;19.972;2022-08-19T04:14:39;100011.47;;;22.51;64.20
73063;BME280;61230;46.328;19.972;2022-08-19T04:17:07;100014.59;;;22.48;63.82
73063;BME280;61230;46.328;19.972;2022-08-19T04:19:35;100015.72;;;22.59;63.40
73063;BME280;61230;46.328;19.972;2022-08-19T04:22:03;100008.81;;;22.63;63.22
73063;BME280;61230;46.328;19.972;2022-08-19T04:24:32;100017.03;;;22.68;62.69
73063;BME280;61230;46.328;19.972;2022-08-19T04:27:01;100022.22;;;22.81;62.42
73063;BME280;61230;46.328;19.972;2022-08-19T04:29:30;100022.91;;;22.88;62.22
73063;BME280;61230;46.328;19.972;2022-08-19T04:31:58;100023.16;;;22.86;62.71
73063;BME280;61230;46.328;19.972;2022-08-19T04:34:35;100014.16;;;22.81;62.64
73063;BME280;61230;46.328;19.972;2022-08-19T04:37:23;100028.31;;;23.00;61.68
73063;BME280;61230;46.328;19.972;2022-08-19T04:39:52;100023.31;;;23.03;61.48
73063;BME280;61230;46.328;19.972;2022-08-19T04:42:38;100021.44;;;23.04;61.64
73063;BME280;61230;46.328;19.972;2022-08-19T04:45:08;100025.53;;;23.06;61.28
73063;BME280;61230;46.328;19.972;2022-08-19T04:47:41;100016.09;;;23.15;61.05
73063;BME280;61230;46.328;19.972;2022-08-19T04:50:26;100025.06;;;23.21;60.84
73063;BME280;61230;46.328;19.972;2022-08-19T04:52:54;100015.16;;;23.21;60.54
73063;BME280;61230;46.328;19.972;2022-08-19T04:55:23;100037.13;;;23.30;60.52
73063;BME280;61230;46.328;19.972;2022-08-19T04:57:54;100040.31;;;23.38;60.19
73063;BME280;61230;46.328;19.972;2022-08-19T05:00:22;100054.31;;;23.40;60.32
73063;BME280;61230;46.328;19.972;2022-08-19T05:02:50;100051.16;;;23.43;60.23
73063;BME280;61230;46.328;19.972;2022-08-19T05:05:17;100038.31;;;23.45;59.96
73063;BME280;61230;46.328;19.972;2022-08-19T05:07:45;100048.00;;;23.58;59.86
73063;BME280;61230;46.328;19.972;2022-08-19T05:10:12;100053.84;;;23.67;59.58
73063;BME280;61230;46.328;19.972;2022-08-19T05:12:40;100056.19;;;23.75;59.48
73063;BME280;61230;46.328;19.972;2022-08-19T05:15:08;100061.41;;;23.81;59.33
73063;BME280;61230;46.328;19.972;2022-08-19T05:17:36;100058.25;;;23.84;59.48
73063;BME280;61230;46.328;19.972;2022-08-19T05:20:07;100061.63;;;23.91;59.19
73063;BME280;61230;46.328;19.972;2022-08-19T05:22:53;100059.62;;;23.98;59.14
73063;BME280;61230;46.328;19.972;2022-08-19T05:25:21;100058.47;;;24.06;58.52
73063;BME280;61230;46.328;19.972;2022-08-19T05:27:49;100048.19;;;24.15;58.67
73063;BME280;61230;46.328;19.972;2022-08-19T05:30:17;100053.09;;;24.18;57.87
73063;BME280;61230;46.328;19.972;2022-08-19T05:33:00;100060.19;;;24.24;57.84
73063;BME280;61230;46.328;19.972;2022-08-19T05:35:27;100070.34;;;24.33;57.78
73063;BME280;61230;46.328;19.972;2022-08-19T05:38:01;100059.44;;;24.40;57.41
73063;BME280;61230;46.328;19.972;2022-08-19T05:40:29;100067.69;;;24.50;56.98
73063;BME280;61230;46.328;19.972;2022-08-19T05:42:56;100071.91;;;24.57;56.96
73063;BME280;61230;46.328;19.972;2022-08-19T05:45:24;100079.25;;;24.62;55.84
73063;BME280;61230;46.328;19.972;2022-08-19T05:47:52;100073.72;;;24.69;55.76
73063;BME280;61230;46.328;19.972;2022-08-19T05:50:20;100071.94;;;24.74;55.51
73063;BME280;61230;46.328;19.972;2022-08-19T05:52:48;100073.53;;;24.87;55.02
73063;BME280;61230;46.328;19.972;2022-08-19T05:55:21;100079.69;;;24.99;54.53
73063;BME280;61230;46.328;19.972;2022-08-19T05:57:49;100081.97;;;25.07;53.96
73063;BME280;61230;46.328;19.972;2022-08-19T06:00:17;100071.28;;;25.12;53.04
73063;BME280;61230;46.328;19.972;2022-08-19T06:02:51;100071.19;;;25.24;52.71
73063;BME280;61230;46.328;19.972;2022-08-19T06:05:19;100070.00;;;25.31;52.90
73063;BME280;61230;46.328;19.972;2022-08-19T06:07:47;100075.31;;;25.43;52.66
73063;BME280;61230;46.328;19.972;2022-08-19T06:10:15;100073.12;;;25.56;52.65
73063;BME280;61230;46.328;19.972;2022-08-19T06:15:12;100083.75;;;25.85;51.91
73063;BME280;61230;46.328;19.972;2022-08-19T06:17:41;100084.09;;;25.88;51.17
73063;BME280;61230;46.328;19.972;2022-08-19T06:20:14;100080.75;;;26.03;51.20
73063;BME280;61230;46.328;19.972;2022-08-19T06:22:45;100067.44;;;26.13;51.24
73063;BME280;61230;46.328;19.972;2022-08-19T06:25:14;100077.03;;;26.25;51.18
73063;BME280;61230;46.328;19.972;2022-08-19T06:27:42;100082.06;;;26.39;50.48
73063;BME280;61230;46.328;19.972;2022-08-19T06:30:30;100080.38;;;26.33;50.36
73063;BME280;61230;46.328;19.972;2022-08-19T06:32:58;100077.09;;;26.52;50.05
73063;BME280;61230;46.328;19.972;2022-08-19T06:35:26;100078.06;;;26.68;49.64
73063;BME280;61230;46.328;19.972;2022-08-19T06:37:54;100070.97;;;26.83;48.99
73063;BME280;61230;46.328;19.972;2022-08-19T06:40:22;100066.94;;;26.86;48.12
73063;BME280;61230;46.328;19.972;2022-08-19T06:42:49;100056.81;;;26.76;48.11
73063;BME280;61230;46.328;19.972;2022-08-19T06:45:22;100055.16;;;26.97;48.12
73063;BME280;61230;46.328;19.972;2022-08-19T06:47:52;100049.38;;;27.15;48.19
73063;BME280;61230;46.328;19.972;2022-08-19T06:50:23;100052.19;;;27.30;46.79
73063;BME280;61230;46.328;19.972;2022-08-19T06:52:51;100042.03;;;27.43;47.30
73063;BME280;61230;46.328;19.972;2022-08-19T06:55:19;100059.25;;;27.36;46.79
73063;BME280;61230;46.328;19.972;2022-08-19T06:57:47;100056.44;;;27.53;46.46
73063;BME280;61230;46.328;19.972;2022-08-19T07:00:15;100057.59;;;27.67;46.93
73063;BME280;61230;46.328;19.972;2022-08-19T07:02:43;100065.78;;;27.72;46.51
73063;BME280;61230;46.328;19.972;2022-08-19T07:05:19;100063.22;;;27.98;46.29
73063;BME280;61230;46.328;19.972;2022-08-19T07:07:47;100068.91;;;28.01;46.24
73063;BME280;61230;46.328;19.972;2022-08-19T07:10:18;100073.09;;;28.24;46.19
73063;BME280;61230;46.328;19.972;2022-08-19T07:12:46;100075.25;;;28.27;45.46
73063;BME280;61230;46.328;19.972;2022-08-19T07:15:14;100074.50;;;28.41;45.68
73063;BME280;61230;46.328;19.972;2022-08-19T07:17:45;100075.91;;;28.59;45.18
73063;BME280;61230;46.328;19.972;2022-08-19T07:20:19;100085.03;;;28.33;45.19
73063;BME280;61230;46.328;19.972;2022-08-19T07:22:46;100079.75;;;28.68;44.93
73063;BME280;61230;46.328;19.972;2022-08-19T07:25:15;100082.47;;;28.63;43.99
73063;BME280;61230;46.328;19.972;2022-08-19T07:27:44;100080.06;;;28.87;43.89
73063;BME280;61230;46.328;19.972;2022-08-19T07:30:16;100084.72;;;29.12;43.91
73063;BME280;61230;46.328;19.972;2022-08-19T07:32:44;100080.66;;;29.24;44.00
73063;BME280;61230;46.328;19.972;2022-08-19T07:35:12;100076.28;;;29.18;42.84
73063;BME280;61230;46.328;19.972;2022-08-19T07:37:39;100077.94;;;29.14;42.69
73063;BME280;61230;46.328;19.972;2022-08-19T07:40:12;100064.66;;;29.28;42.30
73063;BME280;61230;46.328;19.972;2022-08-19T07:42:40;100058.38;;;29.57;42.30
73063;BME280;61230;46.328;19.972;2022-08-19T07:45:08;100064.06;;;29.66;41.99
73063;BME280;61230;46.328;19.972;2022-08-19T07:47:36;100067.34;;;29.53;41.49
73063;BME280;61230;46.328;19.972;2022-08-19T07:50:17;100068.69;;;29.71;41.45
73063;BME280;61230;46.328;19.972;2022-08-19T07:52:46;100069.75;;;29.75;41.54
73063;BME280;61230;46.328;19.972;2022-08-19T07:55:18;100064.56;;;29.98;41.41
73063;BME280;61230;46.328;19.972;2022-08-19T07:58:06;100067.16;;;30.24;41.30
73063;BME280;61230;46.328;19.972;2022-08-19T08:00:34;100068.28;;;30.23;41.56
73063;BME280;61230;46.328;19.972;2022-08-19T08:03:03;100059.78;;;30.34;41.69
73063;BME280;61230;46.328;19.972;2022-08-19T08:05:30;100055.97;;;30.45;40.56
73063;BME280;61230;46.328;19.972;2022-08-19T08:08:17;100054.91;;;30.31;40.66
73063;BME280;61230;46.328;19.972;2022-08-19T08:11:17;100053.72;;;30.57;40.78
73063;BME280;61230;46.328;19.972;2022-08-19T08:13:48;100045.19;;;30.74;40.36
73063;BME280;61230;46.328;19.972;2022-08-19T08:16:36;100057.97;;;30.73;39.86
73063;BME280;61230;46.328;19.972;2022-08-19T08:19:14;100061.91;;;30.91;39.99
73063;BME280;61230;46.328;19.972;2022-08-19T08:21:56;100060.00;;;30.97;39.40
73063;BME280;61230;46.328;19.972;2022-08-19T08:24:26;100062.25;;;30.85;38.26
73063;BME280;61230;46.328;19.972;2022-08-19T08:26:55;100057.37;;;31.20;38.29
73063;BME280;61230;46.328;19.972;2022-08-19T08:29:28;100060.78;;;31.02;37.60
73063;BME280;61230;46.328;19.972;2022-08-19T08:32:02;100057.19;;;31.41;37.57
73063;BME280;61230;46.328;19.972;2022-08-19T08:34:42;100050.59;;;31.47;36.90
73063;BME280;61230;46.328;19.972;2022-08-19T08:37:09;100044.28;;;31.80;36.99
73063;BME280;61230;46.328;19.972;2022-08-19T08:39:37;100051.19;;;31.72;37.03
73063;BME280;61230;46.328;19.972;2022-08-19T08:42:27;100045.53;;;31.93;36.72
73063;BME280;61230;46.328;19.972;2022-08-19T08:45:06;100043.38;;;31.90;36.12
73063;BME280;61230;46.328;19.972;2022-08-19T08:47:43;100031.62;;;32.18;36.55
73063;BME280;61230;46.328;19.972;2022-08-19T08:50:16;100032.38;;;32.23;34.95
73063;BME280;61230;46.328;19.972;2022-08-19T08:52:49;100038.97;;;32.36;34.69
73063;BME280;61230;46.328;19.972;2022-08-19T08:55:22;100036.22;;;32.78;35.04
73063;BME280;61230;46.328;19.972;2022-08-19T08:57:55;100044.37;;;32.97;34.54
73063;BME280;61230;46.328;19.972;2022-08-19T09:00:28;100045.69;;;33.18;34.24
73063;BME280;61230;46.328;19.972;2022-08-19T09:02:58;100043.06;;;32.76;33.56
73063;BME280;61230;46.328;19.972;2022-08-19T09:11:50;100035.59;;;33.19;32.88
73063;BME280;61230;46.328;19.972;2022-08-19T09:17:20;100035.59;;;33.65;32.33
73063;BME280;61230;46.328;19.972;2022-08-19T09:20:03;100031.16;;;33.82;32.39
73063;BME280;61230;46.328;19.972;2022-08-19T09:22:40;100027.81;;;33.99;32.04
73063;BME280;61230;46.328;19.972;2022-08-19T09:25:17;100031.47;;;34.08;31.85
73063;BME280;61230;46.328;19.972;2022-08-19T09:27:54;100030.03;;;34.24;31.20
73063;BME280;61230;46.328;19.972;2022-08-19T09:30:38;100028.66;;;34.49;30.95
73063;BME280;61230;46.328;19.972;2022-08-19T09:33:06;100029.34;;;34.54;30.56
73063;BME280;61230;46.328;19.972;2022-08-19T09:35:34;100017.00;;;34.71;30.46
73063;BME280;61230;46.328;19.972;2022-08-19T09:38:21;100028.25;;;34.20;29.85
73063;BME280;61230;46.328;19.972;2022-08-19T09:40:49;100015.19;;;34.52;29.85
73063;BME280;61230;46.328;19.972;2022-08-19T09:43:17;100021.25;;;34.49;29.52
73063;BME280;61230;46.328;19.972;2022-08-19T09:46:01;100012.94;;;34.68;29.93
73063;BME280;61230;46.328;19.972;2022-08-19T09:48:28;100020.16;;;34.50;29.43
73063;BME280;61230;46.328;19.972;2022-08-19T09:51:05;100018.59;;;34.72;29.59
73063;BME280;61230;46.328;19.972;2022-08-19T09:53:38;100014.69;;;35.31;28.99
73063;BME280;61230;46.328;19.972;2022-08-19T09:56:06;100013.94;;;35.47;28.12
73063;BME280;61230;46.328;19.972;2022-08-19T09:58:36;100009.22;;;35.61;27.96
73063;BME280;61230;46.328;19.972;2022-08-19T10:01:05;99998.50;;;35.51;26.80
73063;BME280;61230;46.328;19.972;2022-08-19T10:03:35;99994.56;;;35.66;26.67
73063;BME280;61230;46.328;19.972;2022-08-19T10:06:04;99989.78;;;35.80;26.55
73063;BME280;61230;46.328;19.972;2022-08-19T10:08:42;99993.00;;;35.91;26.01
73063;BME280;61230;46.328;19.972;2022-08-19T10:11:18;99975.16;;;36.02;25.97
73063;BME280;61230;46.328;19.972;2022-08-19T10:14:03;99979.25;;;36.47;26.05
73063;BME280;61230;46.328;19.972;2022-08-19T10:16:33;99976.34;;;36.18;26.05
73063;BME280;61230;46.328;19.972;2022-08-19T10:19:06;99972.47;;;36.19;25.96
73063;BME280;61230;46.328;19.972;2022-08-19T10:21:33;99971.34;;;36.20;25.39
73063;BME280;61230;46.328;19.972;2022-08-19T10:24:04;99955.53;;;36.25;25.39
73063;BME280;61230;46.328;19.972;2022-08-19T10:26:35;99955.97;;;36.02;25.70
73063;BME280;61230;46.328;19.972;2022-08-19T10:29:04;99948.28;;;36.12;25.91
73063;BME280;61230;46.328;19.972;2022-08-19T10:31:35;99947.97;;;36.40;25.72
73063;BME280;61230;46.328;19.972;2022-08-19T10:34:24;99947.00;;;36.44;25.32
73063;BME280;61230;46.328;19.972;2022-08-19T10:36:56;99946.50;;;36.68;25.46
73063;BME280;61230;46.328;19.972;2022-08-19T10:39:32;99953.44;;;37.00;24.80
73063;BME280;61230;46.328;19.972;2022-08-19T10:42:10;99958.72;;;37.05;24.43
73063;BME280;61230;46.328;19.972;2022-08-19T10:44:40;99953.22;;;37.13;24.59
73063;BME280;61230;46.328;19.972;2022-08-19T10:47:08;99951.94;;;36.94;24.68
73063;BME280;61230;46.328;19.972;2022-08-19T10:49:53;99950.41;;;36.58;24.72
73063;BME280;61230;46.328;19.972;2022-08-19T10:52:41;99934.25;;;36.65;24.22
73063;BME280;61230;46.328;19.972;2022-08-19T10:55:20;99934.25;;;36.65;24.30
73063;BME280;61230;46.328;19.972;2022-08-19T10:58:15;99930.91;;;36.51;24.48
73063;BME280;61230;46.328;19.972;2022-08-19T11:00:51;99931.09;;;37.10;24.14
73063;BME280;61230;46.328;19.972;2022-08-19T11:03:19;99929.44;;;37.26;24.36
73063;BME280;61230;46.328;19.972;2022-08-19T11:05:51;99928.34;;;37.10;24.01
73063;BME280;61230;46.328;19.972;2022-08-19T11:08:23;99947.69;;;37.22;23.47
73063;BME280;61230;46.328;19.972;2022-08-19T11:10:53;99947.00;;;37.71;23.49
73063;BME280;61230;46.328;19.972;2022-08-19T11:13:31;99946.19;;;37.71;23.07
73063;BME280;61230;46.328;19.972;2022-08-19T11:16:04;99941.94;;;37.82;23.59
73063;BME280;61230;46.328;19.972;2022-08-19T11:18:39;99948.81;;;37.67;23.80
73063;BME280;61230;46.328;19.972;2022-08-19T11:23:50;99946.31;;;37.83;22.44
73063;BME280;61230;46.328;19.972;2022-08-19T11:26:19;99938.69;;;37.88;23.77
73063;BME280;61230;46.328;19.972;2022-08-19T11:28:48;99941.47;;;37.42;22.68
73063;BME280;61230;46.328;19.972;2022-08-19T11:31:22;99939.81;;;37.58;22.55
73063;BME280;61230;46.328;19.972;2022-08-19T11:33:57;99936.19;;;37.95;22.52
73063;BME280;61230;46.328;19.972;2022-08-19T11:36:25;99939.75;;;37.67;22.64
73063;BME280;61230;46.328;19.972;2022-08-19T11:38:53;99934.69;;;37.77;22.54
73063;BME280;61230;46.328;19.972;2022-08-19T11:41:22;99937.97;;;38.00;25.03
73063;BME280;61230;46.328;19.972;2022-08-19T11:43:54;99934.38;;;37.41;22.63
73063;BME280;61230;46.328;19.972;2022-08-19T11:46:24;99935.06;;;37.67;22.43
73063;BME280;61230;46.328;19.972;2022-08-19T11:48:51;99922.34;;;37.83;22.26
73063;BME280;61230;46.328;19.972;2022-08-19T11:51:21;99928.97;;;37.91;23.06
73063;BME280;61230;46.328;19.972;2022-08-19T11:53:51;99930.38;;;37.97;23.21
73063;BME280;61230;46.328;19.972;2022-08-19T11:56:24;99920.31;;;37.80;22.56
73063;BME280;61230;46.328;19.972;2022-08-19T11:58:53;99916.91;;;38.25;23.18
73063;BME280;61230;46.328;19.972;2022-08-19T12:01:22;99928.28;;;38.15;22.95
73063;BME280;61230;46.328;19.972;2022-08-19T12:03:53;99923.78;;;38.51;22.69
73063;BME280;61230;46.328;19.972;2022-08-19T12:06:24;99916.19;;;38.69;23.14
73063;BME280;61230;46.328;19.972;2022-08-19T12:08:57;99919.06;;;38.73;23.61
73063;BME280;61230;46.328;19.972;2022-08-19T12:11:25;99917.13;;;38.73;23.37
73063;BME280;61230;46.328;19.972;2022-08-19T12:13:53;99919.94;;;38.85;22.99
73063;BME280;61230;46.328;19.972;2022-08-19T12:16:25;99922.69;;;38.85;22.81
73063;BME280;61230;46.328;19.972;2022-08-19T12:18:55;99927.41;;;38.97;22.53
73063;BME280;61230;46.328;19.972;2022-08-19T12:21:25;99913.97;;;38.95;22.58
73063;BME280;61230;46.328;19.972;2022-08-19T12:23:57;99917.50;;;38.51;23.00
73063;BME280;61230;46.328;19.972;2022-08-19T12:26:27;99916.16;;;38.57;22.24
73063;BME280;61230;46.328;19.972;2022-08-19T12:28:55;99914.25;;;37.87;22.73
73063;BME280;61230;46.328;19.972;2022-08-19T12:31:22;99899.81;;;37.02;22.83
73063;BME280;61230;46.328;19.972;2022-08-19T12:33:50;99910.13;;;38.22;22.35
73063;BME280;61230;46.328;19.972;2022-08-19T12:36:19;99895.91;;;38.41;22.48
73063;BME280;61230;46.328;19.972;2022-08-19T12:38:47;99896.84;;;38.45;22.25
73063;BME280;61230;46.328;19.972;2022-08-19T12:41:16;99895.91;;;38.41;22.56
73063;BME280;61230;46.328;19.972;2022-08-19T12:43:45;99897.22;;;38.56;22.43
73063;BME280;61230;46.328;19.972;2022-08-19T12:46:13;99890.19;;;38.46;22.12
73063;BME280;61230;46.328;19.972;2022-08-19T12:48:43;99886.44;;;38.50;22.49
73063;BME280;61230;46.328;19.972;2022-08-19T12:51:16;99886.53;;;38.42;22.35
73063;BME280;61230;46.328;19.972;2022-08-19T12:53:47;99888.84;;;38.52;22.63
73063;BME280;61230;46.328;19.972;2022-08-19T12:56:15;99882.75;;;38.46;22.86
73063;BME280;61230;46.328;19.972;2022-08-19T12:58:50;99882.22;;;38.53;23.82
73063;BME280;61230;46.328;19.972;2022-08-19T13:01:20;99883.12;;;38.04;22.78
73063;BME280;61230;46.328;19.972;2022-08-19T13:03:50;99881.41;;;38.32;23.86
73063;BME280;61230;46.328;19.972;2022-08-19T13:06:21;99884.94;;;38.20;24.24
73063;BME280;61230;46.328;19.972;2022-08-19T13:08:49;99879.97;;;37.93;23.66
73063;BME280;61230;46.328;19.972;2022-08-19T13:11:19;99878.50;;;37.95;23.54
73063;BME280;61230;46.328;19.972;2022-08-19T13:13:48;99875.84;;;37.78;22.85
73063;BME280;61230;46.328;19.972;2022-08-19T13:16:18;99881.28;;;37.66;23.13
73063;BME280;61230;46.328;19.972;2022-08-19T13:18:47;99878.75;;;37.82;23.22
73063;BME280;61230;46.328;19.972;2022-08-19T13:21:15;99877.16;;;38.02;23.42